Gretna, United Kingdom
Current Conditions -  °F | °C
As of 8:50 PM on Friday 19 Dec 2014 (Local Time) from EGOM Reporting Station
Broken Clouds Broken Clouds  
Wind Chill: 27°   Ceiling: 500
Heat Index: 37°   Visibility: 6mi
Dew Point: 37°   Wind: 21mph
Humidity: 100%   Direction: 250°WSW
Pressure: 29.83"   Gusts: NA
Location:  54.99°N, 3.07°W
Report Text: EGOM 192050Z AUTO 25018KT 9999 BKN005/// SCT036/// 03/03 Q1010 RERA
Loading
Personal Weather Stations






























Interactive Weather Map New forecast layout! Learn more

10-Day Weather Forecast

Advertisements
Track Severe Weather on mobile